createdAt,value
2018-08-18T00:00:06.842Z,7.17
2018-08-18T00:02:35.099Z,7.00
2018-08-18T00:05:03.335Z,9.43
2018-08-18T00:07:32.351Z,7.47
2018-08-18T00:10:00.592Z,6.90
2018-08-18T00:12:29.633Z,7.07
2018-08-18T00:14:57.903Z,6.60
2018-08-18T00:17:26.168Z,8.07
2018-08-18T00:19:54.550Z,7.23
2018-08-18T00:22:22.805Z,6.50
2018-08-18T00:24:51.066Z,6.10
2018-08-18T00:27:19.327Z,7.57
2018-08-18T00:29:47.623Z,7.17
2018-08-18T00:32:15.844Z,8.97
2018-08-18T00:34:44.093Z,7.93
2018-08-18T00:37:12.362Z,6.93
2018-08-18T00:39:40.622Z,6.60
2018-08-18T00:42:09.634Z,7.63
2018-08-18T00:44:37.907Z,7.43
2018-08-18T00:47:06.150Z,8.07
2018-08-18T00:49:35.205Z,10.00
2018-08-18T00:52:03.721Z,8.33
2018-08-18T00:54:31.966Z,7.83
2018-08-18T00:57:00.211Z,7.37
2018-08-18T00:59:28.477Z,7.37
2018-08-18T01:01:56.824Z,10.97
2018-08-18T01:04:25.051Z,7.77
2018-08-18T01:06:53.317Z,7.53
2018-08-18T01:09:21.566Z,7.80
2018-08-18T01:11:50.684Z,8.00
2018-08-18T01:14:19.120Z,7.80
2018-08-18T01:16:47.991Z,7.67
2018-08-18T01:19:16.238Z,8.63
2018-08-18T01:21:44.735Z,8.23
2018-08-18T01:24:12.998Z,10.97
2018-08-18T01:26:41.227Z,8.60
2018-08-18T01:29:10.253Z,8.23
2018-08-18T01:31:38.491Z,9.93
2018-08-18T01:34:07.514Z,8.33
2018-08-18T01:36:35.766Z,9.40
2018-08-18T01:39:04.101Z,8.70
2018-08-18T01:41:32.358Z,8.80
2018-08-18T01:44:00.637Z,9.67
2018-08-18T01:46:28.890Z,8.40
2018-08-18T01:48:57.136Z,8.57
2018-08-18T01:51:26.167Z,9.53
2018-08-18T01:53:54.411Z,8.50
2018-08-18T01:56:23.435Z,8.87
2018-08-18T01:58:51.686Z,8.57
2018-08-18T02:01:19.942Z,8.53
2018-08-18T02:03:48.279Z,8.60
2018-08-18T02:06:16.487Z,7.93
2018-08-18T02:08:45.501Z,7.87
2018-08-18T02:11:13.767Z,8.33
2018-08-18T02:13:42.779Z,8.97
2018-08-18T02:16:11.039Z,7.60
2018-08-18T02:18:40.045Z,7.97
2018-08-18T02:21:08.286Z,7.90
2018-08-18T02:23:36.544Z,7.63
2018-08-18T02:26:04.793Z,7.80
2018-08-18T02:28:33.049Z,8.47
2018-08-18T02:31:02.010Z,9.17
2018-08-18T02:33:31.013Z,8.47
2018-08-18T02:36:00.042Z,8.70
2018-08-18T02:38:28.280Z,7.63
2018-08-18T02:40:57.315Z,11.37
2018-08-18T02:43:25.554Z,8.70
2018-08-18T02:45:53.800Z,8.50
2018-08-18T02:48:22.050Z,8.90
2018-08-18T02:50:50.297Z,7.80
2018-08-18T02:53:21.742Z,8.40
2018-08-18T02:55:50.038Z,8.17
2018-08-18T02:58:18.297Z,9.20
2018-08-18T03:00:46.551Z,9.23
2018-08-18T03:03:14.804Z,9.13
2018-08-18T03:05:43.833Z,8.73
2018-08-18T03:08:12.077Z,7.97
2018-08-18T03:10:41.110Z,11.20
2018-08-18T03:13:09.990Z,8.00
2018-08-18T03:15:38.260Z,8.53
2018-08-18T03:18:06.501Z,9.70
2018-08-18T03:20:34.810Z,7.93
2018-08-18T03:23:03.058Z,10.30
2018-08-18T03:25:32.071Z,8.57
2018-08-18T03:28:00.343Z,9.70
2018-08-18T03:30:28.590Z,8.40
2018-08-18T03:32:56.846Z,8.37
2018-08-18T03:35:25.082Z,9.27
2018-08-18T03:37:53.337Z,9.33
2018-08-18T03:40:21.934Z,7.23
2018-08-18T03:42:50.185Z,9.00
2018-08-18T03:45:18.438Z,7.50
2018-08-18T03:47:46.673Z,7.83
2018-08-18T03:50:14.914Z,8.47
2018-08-18T03:52:43.939Z,8.83
2018-08-18T03:55:12.175Z,8.47
2018-08-18T03:57:41.195Z,10.87
2018-08-18T04:00:09.455Z,8.43
2018-08-18T04:02:37.725Z,8.33
2018-08-18T04:05:05.987Z,9.00
2018-08-18T04:07:34.993Z,8.63
2018-08-18T04:10:03.258Z,8.43
2018-08-18T04:12:31.490Z,9.00
2018-08-18T04:15:00.037Z,10.77
2018-08-18T04:17:28.282Z,9.40
2018-08-18T04:19:57.291Z,9.70
2018-08-18T04:22:26.318Z,14.33
2018-08-18T04:24:54.887Z,14.90
2018-08-18T04:27:23.143Z,9.40
2018-08-18T04:29:51.386Z,9.53
2018-08-18T04:32:19.731Z,12.07
2018-08-18T04:34:47.986Z,10.77
2018-08-18T04:37:17.283Z,8.00
2018-08-18T04:39:45.534Z,9.70
2018-08-18T04:42:14.854Z,9.53
2018-08-18T04:44:43.847Z,9.17
2018-08-18T04:47:13.258Z,9.63
2018-08-18T04:49:41.513Z,9.77
2018-08-18T04:52:09.759Z,12.47
2018-08-18T04:54:38.031Z,9.50
2018-08-18T04:57:06.277Z,9.90
2018-08-18T04:59:34.677Z,10.53
2018-08-18T05:02:02.931Z,9.93
2018-08-18T05:04:31.182Z,10.50
2018-08-18T05:06:59.446Z,10.23
2018-08-18T05:09:27.702Z,10.83
2018-08-18T05:11:56.713Z,9.67
2018-08-18T05:14:24.979Z,10.83
2018-08-18T05:16:53.241Z,11.40
2018-08-18T05:19:22.353Z,12.10
2018-08-18T05:21:51.406Z,11.37
2018-08-18T05:24:19.674Z,11.17
2018-08-18T05:26:58.241Z,12.43
2018-08-18T05:29:26.522Z,11.57
2018-08-18T05:31:54.788Z,12.57
2018-08-18T05:34:23.038Z,12.03
2018-08-18T05:36:51.303Z,12.40
2018-08-18T05:39:20.320Z,12.77
2018-08-18T05:41:48.586Z,15.30
2018-08-18T05:44:16.837Z,14.17
2018-08-18T05:46:46.186Z,13.20
2018-08-18T05:49:14.448Z,13.10
2018-08-18T05:51:42.694Z,14.90
2018-08-18T05:54:10.978Z,14.27
2018-08-18T05:56:39.238Z,13.70
2018-08-18T05:59:08.270Z,14.10
2018-08-18T06:01:36.517Z,14.60
2018-08-18T06:04:04.782Z,16.67
2018-08-18T06:06:33.802Z,15.67
2018-08-18T06:09:02.071Z,13.23
2018-08-18T06:11:30.330Z,13.47
2018-08-18T06:13:59.346Z,13.00
2018-08-18T06:16:27.617Z,13.40
2018-08-18T06:18:56.128Z,15.17
2018-08-18T06:21:24.381Z,12.73
2018-08-18T06:23:52.633Z,12.17
2018-08-18T06:26:20.899Z,13.27
2018-08-18T06:28:49.927Z,11.70
2018-08-18T06:31:18.189Z,12.53
2018-08-18T06:33:46.454Z,15.60
2018-08-18T06:36:14.726Z,12.63
2018-08-18T06:38:42.987Z,13.10
2018-08-18T06:41:12.078Z,13.43
2018-08-18T06:43:40.291Z,13.97
2018-08-18T06:46:08.529Z,12.60
2018-08-18T06:48:37.566Z,16.63
2018-08-18T06:51:05.897Z,12.33
2018-08-18T06:53:34.751Z,16.50
2018-08-18T06:56:02.993Z,11.13
2018-08-18T06:58:31.265Z,11.47
2018-08-18T07:00:59.522Z,11.43
2018-08-18T07:03:30.218Z,10.90
2018-08-18T07:05:58.533Z,9.97
2018-08-18T07:08:26.725Z,11.30
2018-08-18T07:10:54.994Z,10.57
2018-08-18T07:13:24.018Z,12.23
2018-08-18T07:15:52.296Z,10.73
2018-08-18T07:18:21.309Z,10.47
2018-08-18T07:20:49.554Z,9.40
2018-08-18T07:23:17.818Z,10.23
2018-08-18T07:25:46.075Z,12.83
2018-08-18T07:28:14.709Z,12.60
2018-08-18T07:30:43.704Z,10.60
2018-08-18T07:33:11.960Z,14.90
2018-08-18T07:35:40.218Z,12.30
2018-08-18T07:38:08.483Z,12.90
2018-08-18T07:40:37.679Z,12.80
2018-08-18T07:43:05.927Z,10.87
2018-08-18T07:45:34.948Z,9.93
2018-08-18T07:48:03.326Z,10.50
2018-08-18T07:50:31.525Z,10.43
2018-08-18T07:53:00.547Z,10.83
2018-08-18T07:55:28.818Z,12.03
2018-08-18T07:57:57.077Z,10.30
2018-08-18T08:00:25.347Z,10.13
2018-08-18T08:02:53.601Z,10.77
2018-08-18T08:05:21.870Z,12.00
2018-08-18T08:07:50.113Z,13.20
2018-08-18T08:10:19.142Z,11.97
2018-08-18T08:12:47.502Z,12.20
2018-08-18T08:15:15.993Z,10.83
2018-08-18T08:17:44.242Z,13.67
2018-08-18T08:20:13.270Z,12.23
2018-08-18T08:22:41.525Z,9.23
2018-08-18T08:25:09.872Z,12.17
2018-08-18T08:27:38.106Z,8.80
2018-08-18T08:30:06.368Z,8.63
2018-08-18T08:32:34.628Z,9.33
2018-08-18T08:35:04.021Z,10.03
2018-08-18T08:37:32.298Z,8.70
2018-08-18T08:40:00.533Z,10.27
2018-08-18T08:42:28.791Z,12.10
2018-08-18T08:44:57.242Z,11.27
2018-08-18T08:47:25.494Z,8.80
2018-08-18T08:49:54.488Z,11.47
2018-08-18T08:52:22.739Z,8.30
2018-08-18T08:54:51.021Z,11.53
2018-08-18T08:57:19.258Z,7.70
2018-08-18T08:59:47.514Z,9.17
2018-08-18T09:02:15.758Z,11.33
2018-08-18T09:04:44.798Z,10.03
2018-08-18T09:07:13.055Z,8.23
2018-08-18T09:09:41.297Z,9.10
2018-08-18T09:12:10.326Z,9.57
2018-08-18T09:14:38.581Z,8.80
2018-08-18T09:17:06.827Z,8.70
2018-08-18T09:19:35.337Z,8.23
2018-08-18T09:22:03.584Z,8.80
2018-08-18T09:24:32.607Z,7.50
2018-08-18T09:27:00.874Z,10.03
2018-08-18T09:29:29.873Z,10.33
2018-08-18T09:31:58.277Z,8.57
2018-08-18T09:34:26.536Z,12.00
2018-08-18T09:36:54.795Z,10.60
2018-08-18T09:39:23.829Z,8.17
2018-08-18T09:41:52.070Z,5.97
2018-08-18T09:44:20.336Z,6.97
2018-08-18T09:46:49.330Z,7.90
2018-08-18T09:49:17.615Z,6.97
2018-08-18T09:51:45.915Z,5.93
2018-08-18T09:54:14.164Z,7.93
2018-08-18T09:56:43.053Z,7.13
2018-08-18T09:59:11.312Z,9.93
2018-08-18T10:01:40.323Z,6.90
2018-08-18T10:04:08.574Z,7.57
2018-08-18T10:06:37.603Z,9.00
2018-08-18T10:09:05.854Z,9.57
2018-08-18T10:11:34.127Z,9.33
2018-08-18T10:14:03.170Z,5.87
2018-08-18T10:16:31.421Z,9.87
2018-08-18T10:18:59.672Z,5.33
2018-08-18T10:21:27.935Z,8.47
2018-08-18T10:23:56.951Z,7.33
2018-08-18T10:26:25.214Z,8.13
2018-08-18T10:28:53.501Z,6.93
2018-08-18T10:31:21.754Z,8.03
2018-08-18T10:33:50.770Z,5.67
2018-08-18T10:36:19.010Z,9.30
2018-08-18T10:38:48.044Z,8.13
2018-08-18T10:41:16.274Z,8.17
2018-08-18T10:43:45.530Z,6.17
2018-08-18T10:46:13.782Z,7.73
2018-08-18T10:48:42.024Z,6.47
2018-08-18T10:51:11.047Z,9.77
2018-08-18T10:53:39.302Z,8.47
2018-08-18T10:56:08.989Z,7.37
2018-08-18T11:01:42.061Z,6.80
2018-08-18T11:04:11.099Z,9.53
2018-08-18T11:06:39.606Z,10.57
2018-08-18T11:09:07.873Z,9.70
2018-08-18T11:11:36.132Z,6.20
2018-08-18T11:14:05.155Z,7.00
2018-08-18T11:16:33.398Z,6.97
2018-08-18T11:19:02.417Z,6.30
2018-08-18T11:21:30.669Z,7.47
2018-08-18T11:23:59.683Z,8.07
2018-08-18T11:26:27.951Z,11.47
2018-08-18T11:28:56.265Z,8.53
2018-08-18T11:31:24.454Z,8.30
2018-08-18T11:33:52.734Z,6.47
2018-08-18T11:36:20.963Z,6.60
2018-08-18T11:38:49.235Z,5.57
2018-08-18T11:41:17.493Z,8.03
2018-08-18T11:43:46.510Z,6.57
2018-08-18T11:46:14.770Z,9.13
2018-08-18T11:48:43.035Z,7.33
2018-08-18T11:51:11.272Z,8.17
2018-08-18T11:53:39.549Z,8.97
2018-08-18T11:56:07.807Z,6.70
2018-08-18T11:58:36.047Z,9.10
2018-08-18T12:01:05.126Z,6.97
2018-08-18T12:03:33.355Z,6.27
2018-08-18T12:06:01.611Z,7.77
2018-08-18T12:08:30.674Z,7.03
2018-08-18T12:10:59.032Z,5.97
2018-08-18T12:13:27.184Z,7.13
2018-08-18T12:15:55.441Z,7.40
2018-08-18T12:18:23.696Z,6.77
2018-08-18T12:20:52.747Z,6.43
2018-08-18T12:23:21.002Z,6.60
2018-08-18T12:25:49.238Z,6.77
2018-08-18T12:28:18.267Z,5.43
2018-08-18T12:30:46.522Z,6.50
2018-08-18T12:33:15.579Z,8.73
2018-08-18T12:35:43.820Z,5.53
2018-08-18T12:38:12.391Z,5.87
2018-08-18T12:40:40.638Z,7.30
2018-08-18T12:43:09.642Z,6.17
2018-08-18T12:45:37.905Z,5.57
2018-08-18T12:48:06.915Z,6.57
2018-08-18T12:50:35.185Z,6.47
2018-08-18T12:53:04.198Z,5.27
2018-08-18T12:55:32.434Z,7.33
2018-08-18T12:58:01.793Z,7.27
2018-08-18T13:00:30.030Z,9.23
2018-08-18T13:02:58.267Z,6.10
2018-08-18T13:05:26.703Z,6.33
2018-08-18T13:07:54.939Z,7.30
2018-08-18T13:10:23.951Z,5.80
2018-08-18T13:12:52.215Z,5.33
2018-08-18T13:15:21.217Z,5.37
2018-08-18T13:17:49.663Z,5.53
2018-08-18T13:20:17.870Z,6.87
2018-08-18T13:22:46.114Z,6.73
2018-08-18T13:25:14.373Z,6.70
2018-08-18T13:27:42.617Z,7.27
2018-08-18T13:30:10.869Z,6.67
2018-08-18T13:32:39.137Z,6.37
2018-08-18T13:35:08.134Z,6.53
2018-08-18T13:37:36.742Z,6.40
2018-08-18T13:40:05.014Z,7.07
2018-08-18T13:42:33.271Z,7.77
2018-08-18T13:45:02.299Z,7.07
2018-08-18T13:47:30.569Z,6.53
2018-08-18T13:49:58.823Z,6.30
2018-08-18T13:52:27.221Z,7.90
2018-08-18T13:54:55.462Z,6.50
2018-08-18T13:57:23.725Z,7.00
2018-08-18T13:59:51.966Z,7.50
2018-08-18T14:02:20.232Z,6.97
2018-08-18T14:04:48.726Z,6.10
2018-08-18T14:07:16.970Z,8.60
2018-08-18T14:09:45.226Z,6.60
2018-08-18T14:12:13.485Z,6.90
2018-08-18T14:14:42.500Z,5.90
2018-08-18T14:17:10.765Z,7.70
2018-08-18T14:19:39.010Z,6.70
2018-08-18T14:22:07.253Z,6.17
2018-08-18T14:24:35.523Z,8.57
2018-08-18T14:27:03.770Z,9.40
2018-08-18T14:29:32.018Z,6.90
2018-08-18T14:32:01.041Z,6.87
2018-08-18T14:34:29.306Z,10.43
2018-08-18T14:36:57.539Z,8.73
2018-08-18T14:39:26.062Z,6.10
2018-08-18T14:41:54.320Z,6.37
2018-08-18T14:44:23.329Z,6.03
2018-08-18T14:46:51.609Z,6.50
2018-08-18T14:49:20.618Z,6.23
2018-08-18T14:51:48.874Z,8.00
2018-08-18T14:54:17.505Z,8.13
2018-08-18T14:56:45.648Z,5.63
2018-08-18T14:59:13.893Z,7.23
2018-08-18T15:01:42.142Z,6.47
2018-08-18T15:04:10.408Z,5.97
2018-08-18T15:06:38.661Z,5.20
2018-08-18T15:09:06.909Z,5.83
2018-08-18T15:11:35.143Z,6.20
2018-08-18T15:14:03.721Z,6.03
2018-08-18T15:16:31.962Z,6.57
2018-08-18T15:19:00.998Z,11.07
2018-08-18T15:21:29.252Z,6.70
2018-08-18T15:23:57.513Z,6.47
2018-08-18T15:26:26.024Z,6.07
2018-08-18T15:28:54.260Z,7.53
2018-08-18T15:31:22.521Z,6.07
2018-08-18T15:33:50.770Z,6.00
2018-08-18T15:36:19.020Z,5.97
2018-08-18T15:38:47.279Z,6.57
2018-08-18T15:41:15.522Z,5.93
2018-08-18T15:43:43.753Z,8.50
2018-08-18T15:46:12.790Z,8.20
2018-08-18T15:48:41.094Z,6.30
2018-08-18T15:51:09.346Z,7.00
2018-08-18T15:53:37.592Z,7.90
2018-08-18T15:56:05.836Z,5.93
2018-08-18T15:58:34.434Z,5.87
2018-08-18T16:01:03.574Z,6.33
2018-08-18T16:03:31.694Z,6.20
2018-08-18T16:06:00.710Z,6.40
2018-08-18T16:08:28.974Z,9.23
2018-08-18T16:10:57.236Z,6.63
2018-08-18T16:13:26.252Z,7.47
2018-08-18T16:15:54.765Z,7.03
2018-08-18T16:18:23.008Z,6.20
2018-08-18T16:20:51.252Z,5.97
2018-08-18T16:23:19.544Z,6.30
2018-08-18T16:25:48.550Z,6.43
2018-08-18T16:28:16.810Z,6.53
2018-08-18T16:30:45.837Z,7.17
2018-08-18T16:33:14.096Z,6.57
2018-08-18T16:35:42.346Z,6.03
2018-08-18T16:38:11.379Z,5.43
2018-08-18T16:40:39.625Z,7.47
2018-08-18T16:43:08.026Z,8.23
2018-08-18T16:45:36.272Z,5.20
2018-08-18T16:48:05.283Z,7.07
2018-08-18T16:50:33.535Z,5.20
2018-08-18T16:53:02.543Z,5.20
2018-08-18T16:55:31.046Z,6.77
2018-08-18T16:57:59.290Z,5.93
2018-08-18T17:00:28.327Z,4.70
2018-08-18T17:02:56.562Z,4.40
2018-08-18T17:05:24.811Z,7.23
2018-08-18T17:07:53.074Z,5.67
2018-08-18T17:10:21.335Z,9.67
2018-08-18T17:12:49.569Z,4.87
2018-08-18T17:15:17.821Z,4.97
2018-08-18T17:17:46.834Z,7.73
2018-08-18T17:20:15.092Z,4.77
2018-08-18T17:22:44.102Z,6.03
2018-08-18T17:25:12.343Z,5.53
2018-08-18T17:27:40.849Z,7.27
2018-08-18T17:30:09.873Z,5.30
2018-08-18T17:32:38.080Z,6.23
2018-08-18T17:35:06.337Z,7.57
2018-08-18T17:37:34.594Z,6.10
2018-08-18T17:40:02.846Z,5.50
2018-08-18T17:42:31.134Z,5.30
2018-08-18T17:44:59.378Z,4.40
2018-08-18T17:47:28.366Z,4.87
2018-08-18T17:49:57.394Z,6.17
2018-08-18T17:52:25.623Z,4.67
2018-08-18T17:54:53.861Z,4.37
2018-08-18T17:57:22.120Z,4.70
2018-08-18T17:59:50.353Z,8.57
2018-08-18T18:02:18.613Z,5.03
2018-08-18T18:04:46.866Z,4.60
2018-08-18T18:07:15.097Z,4.57
2018-08-18T18:09:43.349Z,4.90
2018-08-18T18:12:12.377Z,5.20
2018-08-18T18:14:40.654Z,4.73
2018-08-18T18:17:08.894Z,6.40
2018-08-18T18:19:37.911Z,5.50
2018-08-18T18:22:06.924Z,8.47
2018-08-18T18:24:35.204Z,5.63
2018-08-18T18:27:04.175Z,6.43
2018-08-18T18:29:32.435Z,29.33
2018-08-18T18:32:01.461Z,60.30
2018-08-18T18:34:29.721Z,58.20
2018-08-18T18:36:57.970Z,60.57
2018-08-18T18:39:26.999Z,69.37
2018-08-18T18:41:55.264Z,55.50
2018-08-18T18:44:23.531Z,43.87
2018-08-18T18:46:52.030Z,38.57
2018-08-18T18:49:20.288Z,35.33
2018-08-18T18:51:49.281Z,36.37
2018-08-18T18:54:17.630Z,41.33
2018-08-18T18:56:46.570Z,30.20
2018-08-18T18:59:14.822Z,28.33
2018-08-18T19:01:43.098Z,31.70
2018-08-18T19:04:11.370Z,28.00
2018-08-18T19:06:39.614Z,28.60
2018-08-18T19:09:09.521Z,14.13
2018-08-18T19:11:37.789Z,21.77
2018-08-18T19:14:06.039Z,25.63
2018-08-18T19:16:34.305Z,18.27
2018-08-18T19:19:02.568Z,12.70
2018-08-18T19:21:31.045Z,19.40
2018-08-18T19:23:59.278Z,18.47
2018-08-18T19:26:27.557Z,12.93
2018-08-18T19:28:55.813Z,13.33
2018-08-18T19:31:24.073Z,15.87
2018-08-18T19:33:52.339Z,11.40
2018-08-18T19:36:20.586Z,7.93
2018-08-18T19:38:48.841Z,9.30
2018-08-18T19:41:17.867Z,5.47
2018-08-18T19:43:46.101Z,6.17
2018-08-18T19:46:15.139Z,10.53
2018-08-18T19:48:43.417Z,9.93
2018-08-18T19:51:11.683Z,14.57
2018-08-18T19:53:40.866Z,14.80
2018-08-18T19:56:09.113Z,6.57
2018-08-18T19:58:37.371Z,10.33
2018-08-18T20:01:05.636Z,7.57
2018-08-18T20:03:33.880Z,7.00
2018-08-18T20:06:02.173Z,8.10
2018-08-18T20:08:30.440Z,6.70
2018-08-18T20:10:58.690Z,9.67
2018-08-18T20:13:26.945Z,8.87
2018-08-18T20:15:55.979Z,6.50
2018-08-18T20:18:24.234Z,10.53
2018-08-18T20:20:53.265Z,6.90
2018-08-18T20:23:21.524Z,9.37
2018-08-18T20:25:50.155Z,6.03
2018-08-18T20:28:18.406Z,6.03
2018-08-18T20:30:46.675Z,10.80
2018-08-18T20:33:14.958Z,6.43
2018-08-18T20:35:43.226Z,8.03
2018-08-18T20:38:11.494Z,5.37
2018-08-18T20:40:39.750Z,5.73
2018-08-18T20:43:08.002Z,6.87
2018-08-18T20:45:36.271Z,7.10
2018-08-18T20:48:05.271Z,5.50
2018-08-18T20:50:33.536Z,5.40
2018-08-18T20:53:02.568Z,6.07
2018-08-18T20:55:30.810Z,5.87
2018-08-18T20:57:59.831Z,12.17
2018-08-18T21:00:28.076Z,5.20
2018-08-18T21:02:57.099Z,6.33
2018-08-18T21:05:25.345Z,7.53
2018-08-18T21:07:54.364Z,6.13
2018-08-18T21:10:22.622Z,6.57
2018-08-18T21:12:50.866Z,5.67
2018-08-18T21:15:19.126Z,7.07
2018-08-18T21:17:47.363Z,7.47
2018-08-18T21:20:15.613Z,6.67
2018-08-18T21:22:43.861Z,5.33
2018-08-18T21:25:12.203Z,7.03
2018-08-18T21:27:40.452Z,7.03
2018-08-18T21:30:08.704Z,6.47
2018-08-18T21:32:37.717Z,5.73
2018-08-18T21:35:06.759Z,8.37
2018-08-18T21:37:35.010Z,8.30
2018-08-18T21:40:03.248Z,7.60
2018-08-18T21:42:31.526Z,6.43
2018-08-18T21:44:59.786Z,10.30
2018-08-18T21:47:28.056Z,6.03
2018-08-18T21:49:56.311Z,5.87
2018-08-18T21:52:24.546Z,5.80
2018-08-18T21:54:52.828Z,9.73
2018-08-18T21:57:21.081Z,7.40
2018-08-18T21:59:49.354Z,6.27
2018-08-18T22:02:17.630Z,8.13
2018-08-18T22:04:46.640Z,6.03
2018-08-18T22:07:15.670Z,5.87
2018-08-18T22:09:44.066Z,8.17
2018-08-18T22:12:12.296Z,7.40
2018-08-18T22:17:16.243Z,7.77
2018-08-18T22:19:44.484Z,9.27
2018-08-18T22:22:12.734Z,5.83
2018-08-18T22:24:41.762Z,6.53
2018-08-18T22:27:10.005Z,7.00
2018-08-18T22:29:39.026Z,6.80
2018-08-18T22:32:07.294Z,6.23
2018-08-18T22:34:35.536Z,8.50
2018-08-18T22:37:04.555Z,6.13
2018-08-18T22:39:32.804Z,7.77
2018-08-18T22:42:02.604Z,6.50
2018-08-18T22:44:30.909Z,9.50
2018-08-18T22:46:59.917Z,7.87
2018-08-18T22:49:28.613Z,8.00
2018-08-18T22:51:56.851Z,6.57
2018-08-18T22:54:25.365Z,7.10
2018-08-18T22:56:53.636Z,7.53
2018-08-18T22:59:21.881Z,6.20
2018-08-18T23:01:50.146Z,6.57
2018-08-18T23:04:19.154Z,6.70
2018-08-18T23:06:47.427Z,6.07
2018-08-18T23:09:15.699Z,8.67
2018-08-18T23:11:43.962Z,8.70
2018-08-18T23:14:12.196Z,6.57
2018-08-18T23:16:40.451Z,7.17
2018-08-18T23:19:08.719Z,6.60
2018-08-18T23:21:36.985Z,6.60
2018-08-18T23:24:05.231Z,6.33
2018-08-18T23:26:34.231Z,8.63
2018-08-18T23:29:03.482Z,8.13
2018-08-18T23:31:31.733Z,7.77
2018-08-18T23:33:59.995Z,8.07
2018-08-18T23:36:28.270Z,11.70
2018-08-18T23:38:56.524Z,6.97
2018-08-18T23:41:25.537Z,8.07
2018-08-18T23:43:53.782Z,8.40
2018-08-18T23:46:22.051Z,7.50
2018-08-18T23:48:50.280Z,8.77
2018-08-18T23:51:18.537Z,7.57
2018-08-18T23:53:46.778Z,7.47
2018-08-18T23:56:15.043Z,6.50
2018-08-18T23:58:43.284Z,7.73
